Time;durP1;ratioP1;P1;durP2;ratioP2;P2;SDS_P1;SDS_P2;PMS_P1;PMS_P2;Temp;Humidity;BMP_temperature;BMP_pressure;BME280_temperature;BME280_humidity;BME280_pressure;Samples;Min_cycle;Max_cycle;Signal;HPM_P1;HPM_P2
2021/03/23 00:00:59;;;;;;;1.80;1.20;;;22.00;49.60;;;;;;4996297;28;20656;-66
2021/03/23 00:03:36;;;;;;;1.33;0.80;;;22.00;49.10;;;;;;4996441;28;20425;-67
2021/03/23 00:06:03;;;;;;;1.57;1.20;;;22.00;49.10;;;;;;4995221;28;20431;-67
2021/03/23 00:08:36;;;;;;;1.30;0.90;;;22.00;49.10;;;;;;4995178;28;20430;-67
2021/03/23 00:11:15;;;;;;;1.20;0.93;;;22.00;49.10;;;;;;4996256;28;20766;-66
2021/03/23 00:13:42;;;;;;;1.83;1.20;;;22.00;49.10;;;;;;4996518;28;20942;-67
2021/03/23 00:16:11;;;;;;;1.40;0.93;;;22.00;49.10;;;;;;4995991;28;20424;-66
2021/03/23 00:18:38;;;;;;;1.60;1.00;;;22.00;49.10;;;;;;4996085;28;20424;-67
2021/03/23 00:21:04;;;;;;;1.50;1.30;;;21.90;49.00;;;;;;5011046;28;21021;-66
2021/03/23 00:23:30;;;;;;;1.30;1.10;;;21.90;49.00;;;;;;4995304;28;20456;-67
2021/03/23 00:25:56;;;;;;;1.20;0.93;;;21.90;49.00;;;;;;4996124;28;20412;-67
2021/03/23 00:28:23;;;;;;;1.23;1.00;;;21.90;49.00;;;;;;4996086;28;20169;-69
2021/03/23 00:30:51;;;;;;;1.90;1.37;;;21.90;49.00;;;;;;4995795;28;20180;-67
2021/03/23 00:33:16;;;;;;;1.43;0.87;;;21.90;49.00;;;;;;4995960;28;20431;-67
2021/03/23 00:35:42;;;;;;;1.30;0.90;;;21.90;49.00;;;;;;4994600;28;20459;-66
2021/03/23 00:38:10;;;;;;;1.27;1.10;;;21.90;49.10;;;;;;4995868;28;20256;-66
2021/03/23 00:40:37;;;;;;;1.20;1.07;;;21.90;49.10;;;;;;4995549;28;20165;-68
2021/03/23 00:43:05;;;;;;;1.43;1.00;;;21.90;49.10;;;;;;4995659;28;20515;-67
2021/03/23 00:45:32;;;;;;;2.03;1.00;;;21.90;49.10;;;;;;4995239;28;20420;-67
2021/03/23 00:47:58;;;;;;;1.67;1.00;;;21.90;49.10;;;;;;4995704;28;20415;-67
2021/03/23 00:50:23;;;;;;;1.40;1.10;;;21.80;49.00;;;;;;4995257;28;20432;-66
2021/03/23 00:52:49;;;;;;;2.07;1.00;;;21.90;49.10;;;;;;4995495;28;20574;-67
2021/03/23 00:55:15;;;;;;;1.03;0.90;;;21.90;49.10;;;;;;4995752;28;20193;-67
2021/03/23 00:57:41;;;;;;;1.00;0.80;;;21.90;49.10;;;;;;4995531;28;20226;-67
2021/03/23 01:00:09;;;;;;;1.40;1.00;;;21.90;49.10;;;;;;4994127;28;20511;-65
2021/03/23 01:02:35;;;;;;;1.27;0.90;;;21.80;49.00;;;;;;4994602;28;20189;-66
2021/03/23 01:05:00;;;;;;;1.70;0.97;;;21.90;49.10;;;;;;4994115;28;20428;-66
2021/03/23 01:07:26;;;;;;;1.60;1.10;;;21.80;49.10;;;;;;4995374;28;20643;-67
2021/03/23 01:09:52;;;;;;;1.87;1.50;;;21.90;49.10;;;;;;4995309;28;20177;-67
2021/03/23 01:12:18;;;;;;;1.47;1.37;;;21.80;49.00;;;;;;4994830;28;20204;-66
2021/03/23 01:14:44;;;;;;;1.63;1.00;;;21.90;49.00;;;;;;4995391;28;20223;-67
2021/03/23 01:17:10;;;;;;;1.47;1.10;;;21.80;49.00;;;;;;4995454;28;20972;-68
2021/03/23 01:19:36;;;;;;;2.40;1.60;;;21.80;49.00;;;;;;4995139;28;20431;-68
2021/03/23 01:22:02;;;;;;;1.70;1.00;;;21.80;49.00;;;;;;4993250;28;20193;-67
2021/03/23 01:24:27;;;;;;;2.37;1.40;;;21.80;49.00;;;;;;4994578;28;20432;-66
2021/03/23 01:26:53;;;;;;;1.80;1.30;;;21.80;48.90;;;;;;4995214;28;20412;-68
2021/03/23 01:29:18;;;;;;;2.37;1.30;;;21.80;49.50;;;;;;4994615;28;20180;-67
2021/03/23 01:31:45;;;;;;;1.63;1.30;;;21.80;48.90;;;;;;4994596;28;20207;-68
2021/03/23 01:34:11;;;;;;;1.60;1.20;;;21.80;48.90;;;;;;4995028;28;20299;-67
2021/03/23 01:36:36;;;;;;;1.27;1.13;;;21.80;48.90;;;;;;4994796;28;20499;-67
2021/03/23 01:39:04;;;;;;;2.70;1.57;;;21.80;48.90;;;;;;4993562;28;20189;-67
2021/03/23 01:41:30;;;;;;;1.77;1.33;;;21.80;48.90;;;;;;5009379;28;20177;-68
2021/03/23 01:43:55;;;;;;;1.33;1.17;;;21.80;48.90;;;;;;4994933;28;20417;-67
2021/03/23 01:46:40;;;;;;;1.57;1.23;;;21.80;48.90;;;;;;4994649;28;20416;-67
2021/03/23 01:49:22;;;;;;;1.70;1.40;;;21.80;48.80;;;;;;4994786;28;20211;-67
2021/03/23 01:51:51;;;;;;;3.27;1.50;;;21.80;48.90;;;;;;4994187;28;20452;-67
2021/03/23 01:54:27;;;;;;;1.73;1.37;;;21.80;48.90;;;;;;4994353;28;20463;-67
2021/03/23 01:56:55;;;;;;;2.07;1.40;;;21.80;48.90;;;;;;4994416;28;20780;-67
2021/03/23 01:59:25;;;;;;;1.80;1.37;;;21.80;48.90;;;;;;4994271;28;20490;-67
2021/03/23 02:01:52;;;;;;;1.30;1.10;;;21.80;48.90;;;;;;4993912;28;20451;-67
2021/03/23 02:04:18;;;;;;;1.30;1.03;;;21.80;48.90;;;;;;4994511;28;20404;-67
2021/03/23 02:06:47;;;;;;;1.30;1.20;;;21.80;48.90;;;;;;4994243;28;20419;-67
2021/03/23 02:09:18;;;;;;;2.10;1.40;;;21.80;48.80;;;;;;4994186;28;20419;-67
2021/03/23 02:11:47;;;;;;;2.13;1.63;;;21.80;48.80;;;;;;4993963;28;20452;-67
2021/03/23 02:14:15;;;;;;;2.73;1.57;;;21.80;48.80;;;;;;4992741;28;20550;-68
2021/03/23 02:16:41;;;;;;;2.23;1.70;;;21.80;48.80;;;;;;4994101;28;20923;-68
2021/03/23 02:19:09;;;;;;;1.87;1.40;;;21.80;48.80;;;;;;4994074;28;20404;-67
2021/03/23 02:21:34;;;;;;;2.60;2.10;;;21.80;48.80;;;;;;4993362;28;20184;-66
2021/03/23 02:24:00;;;;;;;3.83;1.63;;;21.80;48.80;;;;;;4993673;28;20920;-67
2021/03/23 02:26:33;;;;;;;2.20;1.50;;;21.80;48.70;;;;;;4994120;28;20180;-66
2021/03/23 02:29:01;;;;;;;2.40;1.93;;;21.70;48.70;;;;;;4992635;28;20169;-67
2021/03/23 02:31:42;;;;;;;1.97;1.63;;;21.70;48.70;;;;;;4993453;28;20463;-65
2021/03/23 02:34:10;;;;;;;2.07;1.60;;;21.70;48.70;;;;;;4994032;28;20454;-67
2021/03/23 02:36:38;;;;;;;2.20;2.00;;;21.70;48.70;;;;;;4993805;28;20404;-67
2021/03/23 02:39:08;;;;;;;2.33;1.50;;;21.70;48.70;;;;;;4993611;28;20412;-66
2021/03/23 02:41:35;;;;;;;3.33;1.60;;;21.70;48.70;;;;;;4993529;28;20523;-67
2021/03/23 02:44:00;;;;;;;2.10;1.60;;;21.70;48.70;;;;;;4993684;28;20507;-67
2021/03/23 02:46:26;;;;;;;2.10;1.60;;;21.70;48.70;;;;;;4993695;28;20546;-66
2021/03/23 02:48:52;;;;;;;1.80;1.43;;;21.60;48.60;;;;;;4993694;28;20186;-67
2021/03/23 02:51:18;;;;;;;1.63;1.53;;;21.60;48.60;;;;;;4993485;28;20177;-67
2021/03/23 02:53:48;;;;;;;1.53;1.43;;;21.60;48.60;;;;;;4993554;28;20185;-66
2021/03/23 02:56:14;;;;;;;2.60;2.10;;;21.60;48.60;;;;;;4993592;28;20456;-68
2021/03/23 02:58:41;;;;;;;1.93;1.60;;;21.60;48.70;;;;;;4993905;28;20409;-67
2021/03/23 03:01:10;;;;;;;3.00;2.47;;;21.60;48.70;;;;;;4993566;28;20519;-66
2021/03/23 03:03:38;;;;;;;2.17;1.80;;;21.60;48.70;;;;;;4993215;28;20814;-67
2021/03/23 03:06:04;;;;;;;2.20;1.70;;;21.60;48.80;;;;;;4992290;28;20416;-67
2021/03/23 03:08:30;;;;;;;2.43;1.40;;;21.60;48.70;;;;;;4993533;28;20856;-67
2021/03/23 03:10:55;;;;;;;2.43;1.63;;;21.60;48.70;;;;;;4992013;28;20697;-66
2021/03/23 03:13:22;;;;;;;2.80;2.13;;;21.60;48.70;;;;;;4993502;28;20188;-67
2021/03/23 03:15:50;;;;;;;4.90;1.97;;;21.60;48.70;;;;;;4993365;28;20667;-67
2021/03/23 03:18:16;;;;;;;2.67;1.70;;;21.60;48.70;;;;;;4993737;28;20797;-67
2021/03/23 03:20:42;;;;;;;2.63;1.60;;;21.60;48.60;;;;;;4993287;28;20428;-66
2021/03/23 03:23:07;;;;;;;2.60;2.03;;;21.60;48.60;;;;;;4993306;28;20438;-67
2021/03/23 03:25:33;;;;;;;2.80;2.50;;;21.60;48.70;;;;;;4993377;28;20907;-67
2021/03/23 03:27:59;;;;;;;2.10;1.70;;;21.60;48.60;;;;;;4993373;28;20184;-67
2021/03/23 03:30:27;;;;;;;3.30;2.03;;;21.60;48.60;;;;;;4993022;28;20268;-67
2021/03/23 03:32:54;;;;;;;3.23;2.13;;;21.60;48.60;;;;;;4993219;28;20229;-67
2021/03/23 03:35:22;;;;;;;2.10;1.90;;;21.60;48.60;;;;;;4993205;28;20443;-67
2021/03/23 03:37:48;;;;;;;2.23;1.60;;;21.50;48.50;;;;;;4993509;28;20408;-67
2021/03/23 03:40:23;;;;;;;2.10;1.70;;;21.60;48.60;;;;;;4993056;28;20440;-67
2021/03/23 03:42:52;;;;;;;2.30;2.10;;;21.60;48.60;;;;;;4992703;28;20450;-66
2021/03/23 03:45:18;;;;;;;2.07;1.83;;;21.60;48.60;;;;;;4993443;28;20412;-67
2021/03/23 03:47:44;;;;;;;2.37;1.90;;;21.60;48.60;;;;;;4993241;28;20455;-68
2021/03/23 03:50:10;;;;;;;3.47;2.40;;;21.50;48.50;;;;;;4992771;28;20496;-67
2021/03/23 03:52:36;;;;;;;2.77;2.30;;;21.60;48.50;;;;;;4995770;28;20205;-67
2021/03/23 03:55:03;;;;;;;3.30;2.30;;;21.60;48.60;;;;;;4996590;28;20521;-67
2021/03/23 03:57:31;;;;;;;3.13;2.50;;;21.60;48.50;;;;;;4996680;28;20166;-67
2021/03/23 03:59:57;;;;;;;2.20;2.00;;;21.60;48.50;;;;;;4996932;28;20519;-67
2021/03/23 04:02:22;;;;;;;2.57;1.77;;;21.60;48.50;;;;;;4977048;28;20448;-67
2021/03/23 04:04:48;;;;;;;2.63;2.20;;;21.50;48.40;;;;;;4977031;28;20178;-67
2021/03/23 04:07:13;;;;;;;2.80;2.13;;;21.50;48.40;;;;;;4977038;28;20713;-66
2021/03/23 04:09:39;;;;;;;2.27;2.07;;;21.50;48.40;;;;;;4977148;28;20265;-67
2021/03/23 04:12:07;;;;;;;5.00;2.10;;;21.50;48.50;;;;;;4994112;28;20232;-67
2021/03/23 04:14:33;;;;;;;3.40;2.03;;;21.50;48.50;;;;;;4996237;28;20460;-68
2021/03/23 04:16:59;;;;;;;2.30;1.87;;;21.50;48.50;;;;;;4996733;28;20740;-67
2021/03/23 04:19:25;;;;;;;2.77;2.00;;;21.50;48.50;;;;;;4996247;28;20538;-67
2021/03/23 04:21:50;;;;;;;2.30;2.10;;;21.50;48.50;;;;;;4995988;28;20192;-67
2021/03/23 04:24:17;;;;;;;2.80;2.10;;;21.50;48.50;;;;;;4994848;28;20193;-67
2021/03/23 04:26:42;;;;;;;3.33;2.67;;;21.50;48.50;;;;;;4994907;28;20188;-67
2021/03/23 04:29:08;;;;;;;3.40;2.30;;;21.50;48.50;;;;;;4996067;28;20494;-67
2021/03/23 04:31:39;;;;;;;2.53;2.03;;;21.50;48.50;;;;;;4995688;28;20180;-67
2021/03/23 04:34:06;;;;;;;3.57;2.30;;;21.50;48.50;;;;;;4995897;28;20173;-67
2021/03/23 04:36:33;;;;;;;3.33;2.40;;;21.50;48.50;;;;;;4995920;28;20907;-67
2021/03/23 04:38:59;;;;;;;2.87;2.00;;;21.40;48.40;;;;;;4994666;28;20412;-68
2021/03/23 04:41:25;;;;;;;3.70;2.30;;;21.40;48.40;;;;;;4994144;28;20771;-67
2021/03/23 04:43:51;;;;;;;5.60;3.50;;;21.50;48.50;;;;;;4995902;28;20177;-67
2021/03/23 04:46:24;;;;;;;2.23;2.00;;;21.40;48.50;;;;;;4995777;28;20640;-67
2021/03/23 04:48:52;;;;;;;4.13;2.30;;;21.50;48.60;;;;;;4995832;28;20427;-68
2021/03/23 04:51:19;;;;;;;2.70;2.50;;;21.40;48.50;;;;;;4995363;28;20427;-67
2021/03/23 04:53:45;;;;;;;4.33;2.40;;;21.40;48.50;;;;;;4995564;28;20942;-66
2021/03/23 04:56:24;;;;;;;2.27;2.07;;;21.40;48.50;;;;;;4995582;28;20459;-67
2021/03/23 04:58:50;;;;;;;5.07;2.60;;;21.40;48.50;;;;;;4995600;28;20394;-67
2021/03/23 05:01:16;;;;;;;3.40;2.93;;;21.40;48.50;;;;;;4995211;28;20436;-66
2021/03/23 05:03:42;;;;;;;3.50;2.50;;;21.40;48.50;;;;;;4992872;28;20447;-67
2021/03/23 05:06:09;;;;;;;3.17;2.67;;;21.40;48.50;;;;;;4995621;28;20451;-67
2021/03/23 05:08:43;;;;;;;3.47;2.43;;;21.40;48.50;;;;;;5010298;28;20181;-67
2021/03/23 05:11:12;;;;;;;3.43;2.30;;;21.40;48.50;;;;;;4994717;28;20436;-68
2021/03/23 05:13:37;;;;;;;2.87;2.40;;;21.40;48.60;;;;;;4993660;28;20459;-67
2021/03/23 05:16:04;;;;;;;3.80;2.40;;;21.40;48.50;;;;;;4993808;28;20554;-66
2021/03/23 05:18:29;;;;;;;4.27;2.90;;;21.30;48.50;;;;;;4995434;28;20720;-67
2021/03/23 05:20:55;;;;;;;4.13;2.60;;;21.30;48.50;;;;;;4994937;28;20498;-65
2021/03/23 05:23:21;;;;;;;3.30;2.53;;;21.30;49.10;;;;;;4993783;28;20235;-67
2021/03/23 05:25:47;;;;;;;2.30;2.10;;;21.30;48.50;;;;;;4994321;28;20181;-67
2021/03/23 05:28:13;;;;;;;2.60;2.30;;;21.30;48.40;;;;;;4994976;28;20412;-67
2021/03/23 05:30:40;;;;;;;3.37;2.47;;;21.30;48.40;;;;;;4994893;28;20180;-67
2021/03/23 05:33:07;;;;;;;2.03;1.70;;;21.30;48.30;;;;;;4994760;28;20424;-68
2021/03/23 05:35:33;;;;;;;2.60;1.90;;;21.40;48.40;;;;;;4994424;28;20550;-67
2021/03/23 05:37:59;;;;;;;3.70;2.73;;;21.40;48.30;;;;;;4994756;28;20400;-68
2021/03/23 05:40:29;;;;;;;3.37;2.50;;;21.40;48.40;;;;;;4994735;28;20467;-67
2021/03/23 05:43:21;;;;;;;3.10;2.20;;;21.40;48.30;;;;;;4995488;28;20695;-67
2021/03/23 05:45:47;;;;;;;2.37;2.10;;;21.40;48.20;;;;;;4993160;28;20432;-65
2021/03/23 05:48:16;;;;;;;4.50;2.67;;;21.40;48.20;;;;;;4992885;28;20506;-67
2021/03/23 05:50:45;;;;;;;2.90;2.30;;;21.40;48.20;;;;;;4994466;28;20442;-67
2021/03/23 05:53:25;;;;;;;3.57;2.57;;;21.40;48.20;;;;;;4994520;28;20969;-66
2021/03/23 05:55:51;;;;;;;4.10;3.70;;;21.40;48.10;;;;;;4994229;28;20510;-66
2021/03/23 05:58:19;;;;;;;4.63;2.90;;;21.40;48.10;;;;;;4994366;28;20762;-67
2021/03/23 06:00:54;;;;;;;6.60;3.00;;;21.40;48.10;;;;;;4994345;28;20404;-68
2021/03/23 06:03:35;;;;;;;4.33;2.90;;;21.40;48.10;;;;;;4994347;28;20432;-67
2021/03/23 06:06:28;;;;;;;5.77;3.63;;;21.50;48.20;;;;;;4993972;28;20424;-67
2021/03/23 06:08:54;;;;;;;5.13;3.73;;;21.50;48.10;;;;;;4994199;28;20461;-67
2021/03/23 06:11:44;;;;;;;4.80;3.53;;;21.40;48.10;;;;;;4994169;28;20409;-68
2021/03/23 06:14:47;;;;;;;3.73;3.00;;;21.50;48.20;;;;;;4993654;28;20173;-68
2021/03/23 06:17:23;;;;;;;5.03;3.30;;;21.50;48.20;;;;;;4994127;28;20423;-67
2021/03/23 06:20:30;;;;;;;4.50;3.17;;;21.50;48.30;;;;;;4994112;28;20740;-67
2021/03/23 06:22:58;;;;;;;3.80;2.57;;;21.50;48.20;;;;;;4992617;28;20452;-67
2021/03/23 06:25:42;;;;;;;4.40;3.50;;;21.40;48.20;;;;;;4993960;28;20412;-67
2021/03/23 06:28:53;;;;;;;9.47;4.57;;;21.50;48.30;;;;;;4994018;28;20759;-68
2021/03/23 06:31:37;;;;;;;5.13;4.17;;;21.50;48.20;;;;;;4994084;28;20844;-65
2021/03/23 06:34:03;;;;;;;6.60;4.53;;;21.50;48.30;;;;;;4992420;28;20420;-66
2021/03/23 06:36:31;;;;;;;5.80;3.80;;;21.50;48.20;;;;;;4994007;28;20412;-66
2021/03/23 06:38:57;;;;;;;4.90;4.17;;;21.50;48.20;;;;;;4993745;28;20233;-67
2021/03/23 06:41:22;;;;;;;8.13;4.80;;;21.50;48.20;;;;;;4993740;28;20413;-68
2021/03/23 06:43:56;;;;;;;5.47;4.10;;;21.50;48.20;;;;;;4993991;28;20439;-67
2021/03/23 06:46:31;;;;;;;7.87;4.67;;;21.50;48.20;;;;;;4994043;28;20161;-66
2021/03/23 06:49:00;;;;;;;5.30;4.10;;;21.50;48.20;;;;;;4992440;28;20801;-67
2021/03/23 06:51:26;;;;;;;8.40;4.70;;;21.50;48.20;;;;;;4993649;28;20396;-67
2021/03/23 06:53:52;;;;;;;5.20;3.83;;;21.50;48.20;;;;;;4993672;28;20439;-67
2021/03/23 06:56:24;;;;;;;5.20;4.70;;;21.50;48.20;;;;;;4992348;28;20248;-67
2021/03/23 06:59:19;;;;;;;7.60;5.67;;;21.50;48.20;;;;;;4993670;28;20223;-68
2021/03/23 07:01:49;;;;;;;6.43;4.80;;;21.50;48.20;;;;;;4991445;28;20778;-66
2021/03/23 07:04:40;;;;;;;5.90;4.50;;;21.50;48.20;;;;;;4993845;28;20412;-67
2021/03/23 07:07:16;;;;;;;5.90;4.57;;;21.50;48.20;;;;;;4993976;28;20842;-68
2021/03/23 07:09:45;;;;;;;7.53;5.00;;;21.50;48.30;;;;;;4993537;28;20415;-67
2021/03/23 07:12:11;;;;;;;5.50;4.50;;;21.50;48.30;;;;;;4993935;28;20436;-66
2021/03/23 07:14:46;;;;;;;5.80;4.43;;;21.50;48.30;;;;;;4993707;28;20574;-67
2021/03/23 07:17:12;;;;;;;6.70;4.30;;;21.50;48.30;;;;;;4994057;28;20191;-67
2021/03/23 07:19:50;;;;;;;4.30;3.90;;;21.50;48.30;;;;;;4993462;28;20416;-68
2021/03/23 07:22:18;;;;;;;7.00;4.50;;;21.50;48.30;;;;;;4993460;28;20451;-68
2021/03/23 07:24:58;;;;;;;4.70;4.03;;;21.60;48.40;;;;;;4993366;28;20499;-68
2021/03/23 07:27:28;;;;;;;6.17;4.60;;;21.60;48.30;;;;;;4997234;28;20424;-67
2021/03/23 07:30:25;;;;;;;5.60;5.00;;;21.50;48.30;;;;;;4997490;28;20420;-67
2021/03/23 07:32:56;;;;;;;7.63;4.90;;;21.60;48.30;;;;;;4997257;28;20432;-68
2021/03/23 07:35:28;;;;;;;6.93;4.97;;;21.50;48.30;;;;;;4997486;28;20582;-68
2021/03/23 07:37:57;;;;;;;4.87;3.90;;;21.50;48.30;;;;;;4995827;28;20412;-67
2021/03/23 07:40:22;;;;;;;6.80;4.53;;;21.50;48.30;;;;;;4997075;28;20417;-68
2021/03/23 07:43:14;;;;;;;9.03;5.43;;;21.50;48.30;;;;;;4996884;28;20826;-68
2021/03/23 07:46:03;;;;;;;8.50;4.90;;;21.60;48.30;;;;;;4996835;28;20189;-68
2021/03/23 07:48:37;;;;;;;5.87;3.93;;;21.60;48.40;;;;;;4997135;28;20401;-68
2021/03/23 07:51:40;;;;;;;5.77;3.83;;;21.50;48.30;;;;;;4995474;28;20514;-68
2021/03/23 07:54:20;;;;;;;7.13;4.97;;;21.60;48.40;;;;;;4997043;28;20826;-68
2021/03/23 07:56:58;;;;;;;7.17;4.77;;;21.50;48.40;;;;;;4996740;28;20412;-67
2021/03/23 07:59:27;;;;;;;5.90;4.50;;;21.50;48.40;;;;;;4996943;28;20887;-67
2021/03/23 08:01:58;;;;;;;8.00;5.63;;;21.50;48.40;;;;;;4996646;28;20950;-67
2021/03/23 08:04:48;;;;;;;5.87;4.23;;;21.50;48.40;;;;;;4996579;28;20403;-68
2021/03/23 08:07:39;;;;;;;5.53;4.17;;;21.60;48.40;;;;;;4996725;28;20397;-67
2021/03/23 08:10:34;;;;;;;6.07;4.63;;;21.50;48.40;;;;;;4988170;28;20432;-68
2021/03/23 08:13:09;;;;;;;9.33;4.60;;;21.60;48.50;;;;;;4996305;28;20431;-68
2021/03/23 08:15:43;;;;;;;5.47;4.60;;;21.50;48.40;;;;;;4996246;28;20465;-67
2021/03/23 08:18:46;;;;;;;8.50;4.37;;;21.50;48.40;;;;;;4996264;28;20395;-67
2021/03/23 08:21:23;;;;;;;8.37;4.83;;;21.60;48.50;;;;;;4994952;28;20419;-67
2021/03/23 08:24:14;;;;;;;6.80;3.80;;;21.60;48.50;;;;;;4994902;28;20855;-68
2021/03/23 08:27:07;;;;;;;7.60;5.03;;;21.60;48.50;;;;;;4996079;28;20404;-68
2021/03/23 08:29:58;;;;;;;7.40;4.23;;;21.60;48.50;;;;;;4996101;28;20757;-67
2021/03/23 08:32:52;;;;;;;8.97;4.57;;;21.60;48.50;;;;;;4996529;28;20938;-68
2021/03/23 08:35:55;;;;;;;8.83;5.20;;;21.60;48.50;;;;;;4996358;28;20444;-68
2021/03/23 08:38:40;;;;;;;9.63;5.23;;;21.60;48.50;;;;;;4995914;28;20439;-68
2021/03/23 08:41:38;;;;;;;8.20;5.17;;;21.60;48.50;;;;;;4996845;28;20373;-68
2021/03/23 08:44:13;;;;;;;11.63;5.63;;;21.60;48.60;;;;;;4994484;28;20829;-68
2021/03/23 08:46:39;;;;;;;12.47;5.60;;;21.50;48.60;;;;;;4995757;28;20388;-68
2021/03/23 08:49:10;;;;;;;10.90;5.00;;;21.60;48.60;;;;;;4995791;28;20820;-68
2021/03/23 08:51:43;;;;;;;8.17;5.47;;;21.60;48.60;;;;;;4995822;28;20407;-67
2021/03/23 08:54:08;;;;;;;9.27;5.27;;;21.60;48.60;;;;;;4995536;28;20389;-68
2021/03/23 08:56:48;;;;;;;6.60;4.80;;;21.60;48.60;;;;;;4995720;28;20922;-67
2021/03/23 08:59:33;;;;;;;8.40;5.37;;;21.60;48.50;;;;;;4996756;28;20652;-68
2021/03/23 09:02:00;;;;;;;11.20;4.77;;;21.60;48.50;;;;;;4995347;28;20775;-67
2021/03/23 09:04:33;;;;;;;9.43;5.90;;;21.60;48.60;;;;;;4995399;28;20412;-68
2021/03/23 09:07:00;;;;;;;8.53;5.10;;;21.60;48.60;;;;;;4995370;28;20487;-67
2021/03/23 09:09:29;;;;;;;12.00;4.73;;;21.60;48.60;;;;;;4995291;28;20408;-68
2021/03/23 09:12:05;;;;;;;18.00;6.23;;;21.60;48.60;;;;;;4994506;28;20447;-68
2021/03/23 09:14:52;;;;;;;10.07;4.90;;;21.60;48.70;;;;;;4993868;28;20537;-67
2021/03/23 09:17:34;;;;;;;8.57;5.07;;;21.60;48.60;;;;;;4995108;28;20412;-67
2021/03/23 09:20:00;;;;;;;8.00;4.33;;;21.60;48.60;;;;;;4995530;28;20914;-68
2021/03/23 09:22:32;;;;;;;10.30;5.70;;;21.60;48.60;;;;;;4995045;28;20516;-68
2021/03/23 09:25:41;;;;;;;7.83;4.53;;;21.60;48.60;;;;;;4995053;28;20176;-68
2021/03/23 09:28:08;;;;;;;7.37;4.00;;;21.70;48.70;;;;;;4994975;28;20426;-68
2021/03/23 09:30:46;;;;;;;7.60;3.87;;;21.60;48.60;;;;;;4995420;28;20420;-67
2021/03/23 09:33:23;;;;;;;12.00;4.90;;;21.70;48.70;;;;;;4994894;28;20427;-67
2021/03/23 09:36:05;;;;;;;7.57;4.73;;;21.60;48.60;;;;;;4995045;28;20443;-67
2021/03/23 09:38:37;;;;;;;11.00;5.53;;;21.70;48.70;;;;;;4994781;28;20416;-68
2021/03/23 09:41:07;;;;;;;9.77;5.60;;;21.60;49.20;;;;;;4995005;28;20389;-68
2021/03/23 09:43:42;;;;;;;8.47;5.03;;;21.60;49.20;;;;;;4995244;28;20472;-67
2021/03/23 09:46:36;;;;;;;7.03;4.70;;;21.70;48.70;;;;;;4995107;28;20411;-68
2021/03/23 09:49:13;;;;;;;6.30;4.47;;;21.70;48.70;;;;;;4993701;28;20442;-68
2021/03/23 09:51:51;;;;;;;9.80;4.60;;;21.70;48.70;;;;;;4993187;28;20934;-67
2021/03/23 09:54:20;;;;;;;6.10;4.20;;;21.60;48.70;;;;;;4994390;28;20430;-68
2021/03/23 09:56:48;;;;;;;5.80;3.77;;;21.60;48.60;;;;;;4993140;28;20472;-68
2021/03/23 09:59:17;;;;;;;7.67;3.70;;;21.70;48.70;;;;;;4994676;28;20405;-68
2021/03/23 10:01:59;;;;;;;7.30;3.77;;;21.70;48.70;;;;;;4994166;28;20416;-67
2021/03/23 10:04:38;;;;;;;6.07;3.80;;;21.70;48.70;;;;;;4994605;28;20906;-68
2021/03/23 10:07:06;;;;;;;6.00;3.93;;;21.70;48.70;;;;;;4994635;28;20384;-66
2021/03/23 10:09:34;;;;;;;7.83;4.70;;;21.70;48.70;;;;;;4994221;28;20416;-68
2021/03/23 10:12:01;;;;;;;6.37;3.87;;;21.70;48.70;;;;;;4994076;28;20464;-67
2021/03/23 10:14:29;;;;;;;8.93;4.70;;;21.70;48.70;;;;;;4994310;28;20545;-67
2021/03/23 10:17:16;;;;;;;7.30;4.40;;;21.70;48.70;;;;;;4992801;28;20798;-66
2021/03/23 10:19:50;;;;;;;6.57;3.43;;;21.70;48.70;;;;;;4994552;28;20914;-67
2021/03/23 10:22:27;;;;;;;6.23;4.00;;;21.70;48.70;;;;;;4993991;28;20816;-66
2021/03/23 10:24:54;;;;;;;8.33;4.00;;;21.70;48.80;;;;;;4993984;28;20411;-68
2021/03/23 10:27:25;;;;;;;7.90;3.90;;;21.70;48.70;;;;;;4993976;28;20408;-68
2021/03/23 10:30:14;;;;;;;5.90;3.07;;;21.70;48.70;;;;;;4993944;28;20423;-67
2021/03/23 10:32:45;;;;;;;6.80;4.03;;;21.70;48.70;;;;;;4992613;28;20491;-68
2021/03/23 10:35:16;;;;;;;6.17;3.30;;;21.70;48.80;;;;;;4994036;28;20452;-67
2021/03/23 10:37:42;;;;;;;8.70;4.00;;;21.70;48.70;;;;;;4993965;28;20480;-67
2021/03/23 10:40:33;;;;;;;6.43;4.17;;;21.70;48.70;;;;;;4993844;28;20483;-67
2021/03/23 10:42:59;;;;;;;8.30;4.30;;;21.70;48.70;;;;;;4991632;28;20211;-66
2021/03/23 10:45:37;;;;;;;8.33;3.90;;;21.70;48.80;;;;;;4993519;28;20420;-67
2021/03/23 10:48:05;;;;;;;7.40;4.20;;;21.70;48.70;;;;;;4992659;28;20279;-66
2021/03/23 10:50:34;;;;;;;8.43;4.50;;;21.70;48.80;;;;;;4993390;28;20506;-67
2021/03/23 10:53:21;;;;;;;5.83;3.27;;;21.70;48.80;;;;;;4992667;28;20867;-67
2021/03/23 10:55:50;;;;;;;7.90;4.40;;;21.70;48.70;;;;;;4988270;28;21021;-67
2021/03/23 10:58:30;;;;;;;6.10;3.77;;;21.70;48.80;;;;;;4993415;28;20412;-67
2021/03/23 11:01:16;;;;;;;7.37;4.20;;;21.70;48.80;;;;;;4995240;28;20423;-66
2021/03/23 11:03:44;;;;;;;6.00;3.57;;;21.70;48.70;;;;;;4997396;28;20467;-66
2021/03/23 11:06:34;;;;;;;6.27;4.00;;;21.70;48.80;;;;;;4997180;28;20764;-67
2021/03/23 11:09:00;;;;;;;6.73;4.10;;;21.70;48.80;;;;;;4997456;28;20470;-67
2021/03/23 11:11:26;;;;;;;5.43;3.60;;;21.70;48.80;;;;;;4997225;28;20408;-67
2021/03/23 11:13:52;;;;;;;5.97;3.63;;;21.70;48.80;;;;;;4997623;28;20436;-67
2021/03/23 11:16:20;;;;;;;5.40;3.63;;;21.70;48.80;;;;;;4996020;28;20200;-67
2021/03/23 11:18:47;;;;;;;5.90;3.60;;;21.70;48.80;;;;;;4997416;28;20199;-67
2021/03/23 11:21:16;;;;;;;5.27;3.20;;;21.70;48.80;;;;;;4997480;28;20441;-65
2021/03/23 11:23:48;;;;;;;5.00;3.33;;;21.70;48.80;;;;;;4997256;28;20427;-66
2021/03/23 11:26:20;;;;;;;5.83;3.63;;;21.70;48.80;;;;;;4996011;28;20440;-67
2021/03/23 11:28:46;;;;;;;7.37;4.10;;;21.80;48.80;;;;;;4997220;28;20404;-67
2021/03/23 11:31:16;;;;;;;5.50;3.57;;;21.70;48.80;;;;;;4997156;28;20773;-67
2021/03/23 11:33:41;;;;;;;5.53;3.93;;;21.70;48.80;;;;;;4997041;28;20460;-70
2021/03/23 11:36:08;;;;;;;6.03;3.40;;;21.70;48.80;;;;;;4996906;28;20447;-67
2021/03/23 11:38:34;;;;;;;5.80;3.47;;;21.70;48.80;;;;;;4997320;28;20201;-67
2021/03/23 11:41:02;;;;;;;5.40;3.20;;;21.70;48.80;;;;;;4997132;28;20439;-67
2021/03/23 11:43:38;;;;;;;5.83;3.90;;;21.70;48.80;;;;;;4996926;28;20189;-66
2021/03/23 11:46:18;;;;;;;5.27;3.77;;;21.70;48.80;;;;;;4996978;28;20395;-67
2021/03/23 11:48:54;;;;;;;6.43;3.60;;;21.70;48.80;;;;;;4996882;28;20474;-66
2021/03/23 11:51:21;;;;;;;6.10;3.60;;;21.80;48.90;;;;;;4996804;28;20508;-67
2021/03/23 11:53:48;;;;;;;5.17;2.87;;;21.70;48.80;;;;;;4996839;28;20439;-67
2021/03/23 11:56:15;;;;;;;6.83;3.30;;;21.70;48.80;;;;;;4996664;28;20990;-67
2021/03/23 11:58:40;;;;;;;5.83;3.90;;;21.70;48.90;;;;;;4996879;28;20412;-66
2021/03/23 12:01:06;;;;;;;6.73;3.40;;;21.70;48.90;;;;;;4995346;28;20415;-67
2021/03/23 12:03:32;;;;;;;5.80;3.43;;;21.70;48.90;;;;;;4996522;28;20181;-66
2021/03/23 12:06:01;;;;;;;6.03;4.07;;;21.70;48.90;;;;;;4996563;28;20850;-67
2021/03/23 12:08:47;;;;;;;5.43;4.03;;;21.70;48.90;;;;;;4996704;28;20177;-67
2021/03/23 12:11:45;;;;;;;4.77;3.30;;;21.70;48.90;;;;;;4995814;28;20448;-65
2021/03/23 12:14:30;;;;;;;5.00;3.77;;;21.70;48.90;;;;;;4994609;28;20938;-66
2021/03/23 12:17:01;;;;;;;3.83;2.97;;;21.70;48.90;;;;;;4995171;28;20838;-66
2021/03/23 12:19:38;;;;;;;4.50;3.07;;;21.70;49.00;;;;;;4996857;28;20404;-67
2021/03/23 12:22:05;;;;;;;5.10;2.87;;;21.70;49.00;;;;;;4996024;28;20436;-67
2021/03/23 12:24:30;;;;;;;5.13;3.00;;;21.70;49.00;;;;;;4996428;28;20511;-66
2021/03/23 12:26:56;;;;;;;5.13;2.80;;;21.70;49.00;;;;;;4996131;28;20496;-67
2021/03/23 12:29:22;;;;;;;4.87;3.20;;;21.70;48.90;;;;;;4996022;28;20247;-65
2021/03/23 12:31:49;;;;;;;3.50;2.90;;;21.70;48.90;;;;;;4995309;28;20200;-67
2021/03/23 12:34:14;;;;;;;6.73;2.97;;;21.80;49.00;;;;;;4995666;28;20551;-67
2021/03/23 12:36:42;;;;;;;3.70;3.10;;;21.70;48.90;;;;;;4996118;28;20412;-66
2021/03/23 12:39:09;;;;;;;8.93;4.33;;;21.70;48.90;;;;;;4996358;28;20181;-67
2021/03/23 12:41:35;;;;;;;5.47;3.13;;;21.70;48.90;;;;;;4995670;28;20583;-67
2021/03/23 12:44:02;;;;;;;5.30;3.30;;;21.80;49.00;;;;;;4995475;28;20918;-66
2021/03/23 12:46:29;;;;;;;4.67;3.27;;;21.70;48.90;;;;;;4995896;28;20855;-67
2021/03/23 12:48:54;;;;;;;5.87;3.73;;;21.80;49.00;;;;;;4995627;28;20424;-65
2021/03/23 12:51:23;;;;;;;5.07;2.70;;;21.70;48.90;;;;;;4995760;28;20883;-67
2021/03/23 12:53:50;;;;;;;6.40;3.30;;;21.80;49.00;;;;;;4995277;28;20201;-67
2021/03/23 12:56:16;;;;;;;3.73;3.07;;;21.80;49.00;;;;;;4995595;28;20464;-67
2021/03/23 12:58:45;;;;;;;4.70;3.33;;;21.80;49.00;;;;;;4995554;28;20492;-67
2021/03/23 13:01:12;;;;;;;5.43;3.57;;;21.70;49.00;;;;;;4995502;28;20404;-66
2021/03/23 13:03:38;;;;;;;5.50;3.07;;;21.80;49.10;;;;;;4995159;28;20452;-67
2021/03/23 13:06:06;;;;;;;4.70;2.90;;;21.70;49.00;;;;;;4996044;28;20446;-67
2021/03/23 13:08:34;;;;;;;4.97;3.10;;;21.80;49.10;;;;;;4994190;28;20269;-66